Current Conditions - Area Ports

 

CYWH - Victoria Harbour, British Columbia, Canada
Distance from station: WSW 10km
Updated: 05/26/2018 6:00pm
Mostly cloudy
Mostly cloudy
 Wind from WSW
Wind: WSW 28 km/h
Temperature: 15°C
Dew Point: 6°C
Humidity: 55%
Barometer: 1021.7 hPa
Clouds: Mostly cloudy
Visibility: 24 km
Cloud details: Few Clouds 914 m
Mostly cloudy 3048 m
Mostly cloudy 6706 m
2018/05/27 01:00 CYWH 270100Z 25015KT 15SM FEW030 BKN100 BKN220 15/06 A3017 RMK CU1AC5CI2 CU TR SLP217
KFHR - Friday Harbor, Washington, USA
Distance from station: ENE 19km
Updated: 05/26/2018 5:53pm
Overcast
Overcast
 Wind from SSW
Wind: SSW 20 km/h
Temperature: 16°C
Dew Point: 5°C
Humidity: 48%
Barometer: 1022.4 hPa
Clouds: Overcast
Visibility: 16 km
Cloud details: Mostly cloudy 2743 m
Overcast 3353 m
2018/05/27 00:53 KFHR 270053Z AUTO 20011KT 10SM BKN090 OVC110 16/05 A3019 RMK AO2 SLP223 T01560050 TSNO
 
KORS - Eastsound/Orcas, Washington, USA
Distance from station: NE 38km
Updated: 05/26/2018 6:15pm
Mostly cloudy
Mostly cloudy
 Wind from SSE
Wind: SSE 17 km/h
Temperature: 17°C
Dew Point: 6°C
Humidity: 49%
Barometer: 1021.3 hPa
Clouds: Mostly cloudy
Visibility: 16 km
Cloud details: Few Clouds 2438 m
Mostly cloudy 3048 m
2018/05/27 01:15 KORS 270115Z AUTO 16009KT 10SM FEW080 BKN100 17/06 A3016 RMK AO2
KNUW - Whidbey Is. Nas, Washington, USA
Distance from station: ESE 47km
Updated: 05/26/2018 5:56pm
Overcast
Overcast
 Wind from SW
Wind: SW 20 km/h
Temperature: 15°C
Dew Point: 8°C
Humidity: 63%
Barometer: 1024 hPa
Clouds: Overcast
Visibility: 16 km
Cloud details: Few Clouds 1372 m
Partly cloudy 1829 m
Mostly cloudy 3658 m
Overcast 6096 m
2018/05/27 00:56 KNUW 270056Z 23011KT 10SM FEW045 SCT060 BKN120 OVC200 15/08 A3024 RMK AO2 SLP241 T01500078 $
 
CWEZ - Saturna Isl (map, British Columbia, Canada
Distance from station: NNE 40km
Updated: 05/26/2018 6:00pm

 Wind from S
Wind: S 24 km/h
Temperature: 15°C
Dew Point: 8°C
Humidity: 63%
2018/05/27 01:00 CWEZ 270100Z AUTO 17013KT 15/08 RMK AO1 SLP212 T01460080 52004
CYCD - Nanaimo Airport, British Columbia, Canada
Distance from station: NW 80km
Updated: 12/31/1969 4:00pm
NOT Current
unable to load CYCD data RC=404 Not Found
unable to load CYCD data RC=404 Not Found
 
 
CWVF - Sand Heads (ls), British Columbia, Canada
Distance from station: N 72km
Updated: 05/20/2018 8:15am
NOT Current

 Wind from SE
Wind: SE 20 km/h
Temperature: 12°C
2018/05/20 15:15 CWVF 201515Z AUTO 13011KT 12/ RMK AO1 T0124
CWQK - Race Rocks Autob, British Columbia, Canada
Distance from station: SW 26km
Updated: 05/26/2018 6:00pm

 Wind from WNW
Wind: WNW 46 km/h, Gust: 56 km/h
Temperature: 14°C
Dew Point: 5°C
Humidity: 55%
2018/05/27 01:00 CWQK 270100Z AUTO 29025G30KT 14/05 RMK AO1 PK WND 28034/0020 SLP221 T01360047 53007
 
CWSP - Sheringham Autob, British Columbia, Canada
Distance from station: W 49km
Updated: 05/26/2018 6:00pm

 Wind from W
Wind: W 37 km/h
2018/05/27 01:00 CWSP 270100Z AUTO 28020KT RMK AO1 PK WND 29024/0007 50009